sensor_id;sensor_type;location;lat;lon;timestamp;temperature;humidity
7234;DHT22;3658;47.992;10.158;2024-01-30T00:00:37;21.30;32.60
7234;DHT22;3658;47.992;10.158;2024-01-30T00:03:04;21.20;32.50
7234;DHT22;3658;47.992;10.158;2024-01-30T00:05:31;21.20;32.50
7234;DHT22;3658;47.992;10.158;2024-01-30T00:07:58;21.20;32.50
7234;DHT22;3658;47.992;10.158;2024-01-30T00:10:25;21.20;32.50
7234;DHT22;3658;47.992;10.158;2024-01-30T00:12:51;21.20;32.50
7234;DHT22;3658;47.992;10.158;2024-01-30T00:15:20;21.20;32.50
7234;DHT22;3658;47.992;10.158;2024-01-30T00:17:47;21.20;32.50
7234;DHT22;3658;47.992;10.158;2024-01-30T00:20:13;21.20;32.40
7234;DHT22;3658;47.992;10.158;2024-01-30T00:22:40;21.20;32.50
7234;DHT22;3658;47.992;10.158;2024-01-30T00:25:08;21.20;32.30
7234;DHT22;3658;47.992;10.158;2024-01-30T00:27:35;21.20;32.30
7234;DHT22;3658;47.992;10.158;2024-01-30T00:30:02;21.20;32.30
7234;DHT22;3658;47.992;10.158;2024-01-30T00:32:30;21.20;32.30
7234;DHT22;3658;47.992;10.158;2024-01-30T00:34:57;21.20;32.30
7234;DHT22;3658;47.992;10.158;2024-01-30T00:37:23;21.20;32.20
7234;DHT22;3658;47.992;10.158;2024-01-30T00:39:50;21.20;32.20
7234;DHT22;3658;47.992;10.158;2024-01-30T00:42:17;21.20;32.20
7234;DHT22;3658;47.992;10.158;2024-01-30T00:44:44;21.20;32.20
7234;DHT22;3658;47.992;10.158;2024-01-30T00:47:11;21.20;32.20
7234;DHT22;3658;47.992;10.158;2024-01-30T00:49:39;21.20;32.10
7234;DHT22;3658;47.992;10.158;2024-01-30T00:52:06;21.10;32.00
7234;DHT22;3658;47.992;10.158;2024-01-30T00:54:33;21.20;32.20
7234;DHT22;3658;47.992;10.158;2024-01-30T00:56:59;21.20;32.10
7234;DHT22;3658;47.992;10.158;2024-01-30T00:59:26;21.20;32.10
7234;DHT22;3658;47.992;10.158;2024-01-30T01:01:53;21.20;32.10
7234;DHT22;3658;47.992;10.158;2024-01-30T01:04:20;21.20;32.00
7234;DHT22;3658;47.992;10.158;2024-01-30T01:06:49;21.20;32.10
7234;DHT22;3658;47.992;10.158;2024-01-30T01:09:16;21.20;32.10
7234;DHT22;3658;47.992;10.158;2024-01-30T01:11:43;21.20;32.00
7234;DHT22;3658;47.992;10.158;2024-01-30T01:14:09;21.20;32.10
7234;DHT22;3658;47.992;10.158;2024-01-30T01:16:36;21.20;32.10
7234;DHT22;3658;47.992;10.158;2024-01-30T01:19:03;21.20;32.00
7234;DHT22;3658;47.992;10.158;2024-01-30T01:21:30;21.20;32.10
7234;DHT22;3658;47.992;10.158;2024-01-30T01:23:58;21.20;32.10
7234;DHT22;3658;47.992;10.158;2024-01-30T01:26:24;21.20;32.10
7234;DHT22;3658;47.992;10.158;2024-01-30T01:28:51;21.20;32.00
7234;DHT22;3658;47.992;10.158;2024-01-30T01:31:18;21.20;32.00
7234;DHT22;3658;47.992;10.158;2024-01-30T01:33:48;21.20;32.00
7234;DHT22;3658;47.992;10.158;2024-01-30T01:36:14;21.20;32.00
7234;DHT22;3658;47.992;10.158;2024-01-30T01:38:41;21.20;32.00
7234;DHT22;3658;47.992;10.158;2024-01-30T01:41:09;21.10;31.90
7234;DHT22;3658;47.992;10.158;2024-01-30T01:43:36;21.20;32.00
7234;DHT22;3658;47.992;10.158;2024-01-30T01:46:03;21.20;32.00
7234;DHT22;3658;47.992;10.158;2024-01-30T01:48:30;21.20;31.90
7234;DHT22;3658;47.992;10.158;2024-01-30T01:50:57;21.10;32.50
7234;DHT22;3658;47.992;10.158;2024-01-30T01:53:25;21.20;32.00
7234;DHT22;3658;47.992;10.158;2024-01-30T01:55:54;21.20;31.90
7234;DHT22;3658;47.992;10.158;2024-01-30T01:58:23;21.20;31.80
7234;DHT22;3658;47.992;10.158;2024-01-30T02:00:54;21.10;31.80
7234;DHT22;3658;47.992;10.158;2024-01-30T02:03:21;21.20;31.80
7234;DHT22;3658;47.992;10.158;2024-01-30T02:05:48;21.20;31.90
7234;DHT22;3658;47.992;10.158;2024-01-30T02:08:15;21.20;31.80
7234;DHT22;3658;47.992;10.158;2024-01-30T02:10:42;21.20;31.80
7234;DHT22;3658;47.992;10.158;2024-01-30T02:13:09;21.20;31.80
7234;DHT22;3658;47.992;10.158;2024-01-30T02:15:37;21.20;31.90
7234;DHT22;3658;47.992;10.158;2024-01-30T02:18:04;21.20;31.70
7234;DHT22;3658;47.992;10.158;2024-01-30T02:20:31;21.20;31.80
7234;DHT22;3658;47.992;10.158;2024-01-30T02:23:03;21.20;31.80
7234;DHT22;3658;47.992;10.158;2024-01-30T02:25:31;21.20;31.80
7234;DHT22;3658;47.992;10.158;2024-01-30T02:27:58;21.10;31.70
7234;DHT22;3658;47.992;10.158;2024-01-30T02:30:25;21.10;31.70
7234;DHT22;3658;47.992;10.158;2024-01-30T02:32:51;21.10;31.70
7234;DHT22;3658;47.992;10.158;2024-01-30T02:35:18;21.20;31.80
7234;DHT22;3658;47.992;10.158;2024-01-30T02:37:45;21.10;31.60
7234;DHT22;3658;47.992;10.158;2024-01-30T02:40:13;21.20;31.80
7234;DHT22;3658;47.992;10.158;2024-01-30T02:42:40;21.20;31.70
7234;DHT22;3658;47.992;10.158;2024-01-30T02:45:09;21.20;31.70
7234;DHT22;3658;47.992;10.158;2024-01-30T02:47:36;21.20;31.70
7234;DHT22;3658;47.992;10.158;2024-01-30T02:50:03;21.20;31.70
7234;DHT22;3658;47.992;10.158;2024-01-30T02:52:30;21.20;31.70
7234;DHT22;3658;47.992;10.158;2024-01-30T02:54:57;21.10;31.70
7234;DHT22;3658;47.992;10.158;2024-01-30T02:57:25;21.20;31.80
7234;DHT22;3658;47.992;10.158;2024-01-30T02:59:52;21.10;31.60
7234;DHT22;3658;47.992;10.158;2024-01-30T03:02:18;21.20;31.70
7234;DHT22;3658;47.992;10.158;2024-01-30T03:04:45;21.20;32.30
7234;DHT22;3658;47.992;10.158;2024-01-30T03:07:12;21.10;31.60
7234;DHT22;3658;47.992;10.158;2024-01-30T03:09:41;21.20;31.60
7234;DHT22;3658;47.992;10.158;2024-01-30T03:12:08;21.10;31.50
7234;DHT22;3658;47.992;10.158;2024-01-30T03:14:36;21.20;31.60
7234;DHT22;3658;47.992;10.158;2024-01-30T03:17:03;21.20;31.50
7234;DHT22;3658;47.992;10.158;2024-01-30T03:19:30;21.20;31.50
7234;DHT22;3658;47.992;10.158;2024-01-30T03:21:56;21.20;32.20
7234;DHT22;3658;47.992;10.158;2024-01-30T03:24:23;21.20;31.50
7234;DHT22;3658;47.992;10.158;2024-01-30T03:26:50;21.20;31.40
7234;DHT22;3658;47.992;10.158;2024-01-30T03:29:17;21.20;31.60
7234;DHT22;3658;47.992;10.158;2024-01-30T03:31:45;21.10;31.50
7234;DHT22;3658;47.992;10.158;2024-01-30T03:34:11;21.10;31.50
7234;DHT22;3658;47.992;10.158;2024-01-30T03:36:38;21.10;31.50
7234;DHT22;3658;47.992;10.158;2024-01-30T03:39:05;21.20;31.50
7234;DHT22;3658;47.992;10.158;2024-01-30T03:41:32;21.10;31.50
7234;DHT22;3658;47.992;10.158;2024-01-30T03:43:59;21.10;31.40
7234;DHT22;3658;47.992;10.158;2024-01-30T03:46:26;21.20;31.50
7234;DHT22;3658;47.992;10.158;2024-01-30T03:48:54;21.20;31.50
7234;DHT22;3658;47.992;10.158;2024-01-30T03:51:20;21.10;31.50
7234;DHT22;3658;47.992;10.158;2024-01-30T03:53:47;21.20;31.50
7234;DHT22;3658;47.992;10.158;2024-01-30T03:56:14;21.20;31.50
7234;DHT22;3658;47.992;10.158;2024-01-30T03:58:41;21.10;31.40
7234;DHT22;3658;47.992;10.158;2024-01-30T04:01:12;21.10;31.50
7234;DHT22;3658;47.992;10.158;2024-01-30T04:03:39;21.10;31.50
7234;DHT22;3658;47.992;10.158;2024-01-30T04:06:07;21.20;31.50
7234;DHT22;3658;47.992;10.158;2024-01-30T04:08:34;21.10;31.50
7234;DHT22;3658;47.992;10.158;2024-01-30T04:11:03;21.10;31.40
7234;DHT22;3658;47.992;10.158;2024-01-30T04:13:31;21.20;31.40
7234;DHT22;3658;47.992;10.158;2024-01-30T04:15:59;21.20;31.40
7234;DHT22;3658;47.992;10.158;2024-01-30T04:18:26;21.10;31.40
7234;DHT22;3658;47.992;10.158;2024-01-30T04:20:53;21.10;31.40
7234;DHT22;3658;47.992;10.158;2024-01-30T04:23:21;21.10;31.50
7234;DHT22;3658;47.992;10.158;2024-01-30T04:25:48;21.10;31.40
7234;DHT22;3658;47.992;10.158;2024-01-30T04:28:15;21.10;31.40
7234;DHT22;3658;47.992;10.158;2024-01-30T04:30:42;21.10;31.50
7234;DHT22;3658;47.992;10.158;2024-01-30T04:33:09;21.10;31.40
7234;DHT22;3658;47.992;10.158;2024-01-30T04:35:36;21.10;31.40
7234;DHT22;3658;47.992;10.158;2024-01-30T04:38:03;21.10;31.40
7234;DHT22;3658;47.992;10.158;2024-01-30T04:40:31;21.20;31.40
7234;DHT22;3658;47.992;10.158;2024-01-30T04:42:58;21.20;31.40
7234;DHT22;3658;47.992;10.158;2024-01-30T04:45:25;21.10;31.30
7234;DHT22;3658;47.992;10.158;2024-01-30T04:47:52;21.10;31.40
7234;DHT22;3658;47.992;10.158;2024-01-30T04:50:18;21.10;31.40
7234;DHT22;3658;47.992;10.158;2024-01-30T04:52:45;21.10;31.30
7234;DHT22;3658;47.992;10.158;2024-01-30T04:55:12;21.10;31.30
7234;DHT22;3658;47.992;10.158;2024-01-30T04:57:40;21.10;32.00
7234;DHT22;3658;47.992;10.158;2024-01-30T05:00:09;21.10;31.20
7234;DHT22;3658;47.992;10.158;2024-01-30T05:02:36;21.10;31.30
7234;DHT22;3658;47.992;10.158;2024-01-30T05:05:03;21.10;31.30
7234;DHT22;3658;47.992;10.158;2024-01-30T05:07:30;21.10;31.20
7234;DHT22;3658;47.992;10.158;2024-01-30T05:09:57;21.10;31.20
7234;DHT22;3658;47.992;10.158;2024-01-30T05:12:23;21.20;31.30
7234;DHT22;3658;47.992;10.158;2024-01-30T05:14:51;21.10;31.20
7234;DHT22;3658;47.992;10.158;2024-01-30T05:17:18;21.10;31.20
7234;DHT22;3658;47.992;10.158;2024-01-30T05:19:45;21.10;31.20
7234;DHT22;3658;47.992;10.158;2024-01-30T05:22:12;21.10;31.20
7234;DHT22;3658;47.992;10.158;2024-01-30T05:24:41;21.10;31.20
7234;DHT22;3658;47.992;10.158;2024-01-30T05:27:07;21.10;31.20
7234;DHT22;3658;47.992;10.158;2024-01-30T05:29:34;21.10;31.20
7234;DHT22;3658;47.992;10.158;2024-01-30T05:32:03;21.10;31.20
7234;DHT22;3658;47.992;10.158;2024-01-30T05:34:30;21.10;31.20
7234;DHT22;3658;47.992;10.158;2024-01-30T05:36:57;21.10;31.20
7234;DHT22;3658;47.992;10.158;2024-01-30T05:39:24;21.20;31.20
7234;DHT22;3658;47.992;10.158;2024-01-30T05:41:51;21.10;31.10
7234;DHT22;3658;47.992;10.158;2024-01-30T05:44:17;21.10;31.10
7234;DHT22;3658;47.992;10.158;2024-01-30T05:46:44;21.10;31.10
7234;DHT22;3658;47.992;10.158;2024-01-30T05:49:12;21.10;31.10
7234;DHT22;3658;47.992;10.158;2024-01-30T05:51:39;21.20;31.10
7234;DHT22;3658;47.992;10.158;2024-01-30T05:54:06;21.10;31.00
7234;DHT22;3658;47.992;10.158;2024-01-30T05:56:32;21.10;31.10
7234;DHT22;3658;47.992;10.158;2024-01-30T05:58:59;21.10;31.20
7234;DHT22;3658;47.992;10.158;2024-01-30T06:01:25;21.10;31.10
7234;DHT22;3658;47.992;10.158;2024-01-30T06:03:52;21.10;31.20
7234;DHT22;3658;47.992;10.158;2024-01-30T06:06:20;21.10;31.20
7234;DHT22;3658;47.992;10.158;2024-01-30T06:08:47;21.10;31.70
7234;DHT22;3658;47.992;10.158;2024-01-30T06:11:14;21.10;32.60
7234;DHT22;3658;47.992;10.158;2024-01-30T06:13:41;21.10;33.00
7234;DHT22;3658;47.992;10.158;2024-01-30T06:16:09;21.00;33.20
7234;DHT22;3658;47.992;10.158;2024-01-30T06:18:37;21.10;33.60
7234;DHT22;3658;47.992;10.158;2024-01-30T06:21:04;21.10;33.70
7234;DHT22;3658;47.992;10.158;2024-01-30T06:23:32;21.10;33.60
7234;DHT22;3658;47.992;10.158;2024-01-30T06:25:59;21.10;33.90
7234;DHT22;3658;47.992;10.158;2024-01-30T06:28:26;21.20;34.10
7234;DHT22;3658;47.992;10.158;2024-01-30T06:30:53;21.10;34.10
7234;DHT22;3658;47.992;10.158;2024-01-30T06:33:19;21.10;34.10
7234;DHT22;3658;47.992;10.158;2024-01-30T06:35:46;21.20;34.10
7234;DHT22;3658;47.992;10.158;2024-01-30T06:38:13;21.10;34.10
7234;DHT22;3658;47.992;10.158;2024-01-30T06:40:42;21.20;34.20
7234;DHT22;3658;47.992;10.158;2024-01-30T06:43:09;21.20;34.30
7234;DHT22;3658;47.992;10.158;2024-01-30T06:45:36;21.20;34.90
7234;DHT22;3658;47.992;10.158;2024-01-30T06:48:04;21.20;34.30
7234;DHT22;3658;47.992;10.158;2024-01-30T06:50:31;21.20;34.20
7234;DHT22;3658;47.992;10.158;2024-01-30T06:52:58;21.20;34.20
7234;DHT22;3658;47.992;10.158;2024-01-30T06:55:25;21.20;34.40
7234;DHT22;3658;47.992;10.158;2024-01-30T06:57:53;21.20;34.30
7234;DHT22;3658;47.992;10.158;2024-01-30T07:00:20;21.20;34.30
7234;DHT22;3658;47.992;10.158;2024-01-30T07:02:48;21.30;34.40
7234;DHT22;3658;47.992;10.158;2024-01-30T07:05:14;21.30;34.90
7234;DHT22;3658;47.992;10.158;2024-01-30T07:07:42;21.50;34.90
7234;DHT22;3658;47.992;10.158;2024-01-30T07:10:09;21.50;34.90
7234;DHT22;3658;47.992;10.158;2024-01-30T07:12:36;21.50;34.80
7234;DHT22;3658;47.992;10.158;2024-01-30T07:15:05;21.70;34.70
7234;DHT22;3658;47.992;10.158;2024-01-30T07:17:33;21.70;34.60
7234;DHT22;3658;47.992;10.158;2024-01-30T07:20:00;21.70;34.40
7234;DHT22;3658;47.992;10.158;2024-01-30T07:22:29;21.80;34.40
7234;DHT22;3658;47.992;10.158;2024-01-30T07:24:55;21.80;34.40
7234;DHT22;3658;47.992;10.158;2024-01-30T07:27:22;21.80;34.40
7234;DHT22;3658;47.992;10.158;2024-01-30T07:29:49;21.80;34.30
7234;DHT22;3658;47.992;10.158;2024-01-30T07:32:17;21.80;34.40
7234;DHT22;3658;47.992;10.158;2024-01-30T07:34:45;21.80;34.30
7234;DHT22;3658;47.992;10.158;2024-01-30T07:37:11;21.80;34.30
7234;DHT22;3658;47.992;10.158;2024-01-30T07:39:41;21.80;34.30
7234;DHT22;3658;47.992;10.158;2024-01-30T07:42:07;21.90;34.40
7234;DHT22;3658;47.992;10.158;2024-01-30T07:44:34;21.90;34.30
7234;DHT22;3658;47.992;10.158;2024-01-30T07:47:01;21.80;34.20
7234;DHT22;3658;47.992;10.158;2024-01-30T07:49:29;21.90;34.40
7234;DHT22;3658;47.992;10.158;2024-01-30T07:51:56;21.90;34.20
7234;DHT22;3658;47.992;10.158;2024-01-30T07:54:23;21.90;34.30
7234;DHT22;3658;47.992;10.158;2024-01-30T07:56:50;21.90;34.30
7234;DHT22;3658;47.992;10.158;2024-01-30T07:59:16;21.80;34.20
7234;DHT22;3658;47.992;10.158;2024-01-30T08:01:45;21.80;34.90
7234;DHT22;3658;47.992;10.158;2024-01-30T08:04:11;21.90;34.40
7234;DHT22;3658;47.992;10.158;2024-01-30T08:06:39;21.90;34.40
7234;DHT22;3658;47.992;10.158;2024-01-30T08:09:06;21.90;34.30
7234;DHT22;3658;47.992;10.158;2024-01-30T08:11:33;21.90;34.40
7234;DHT22;3658;47.992;10.158;2024-01-30T08:14:00;21.90;34.40
7234;DHT22;3658;47.992;10.158;2024-01-30T08:16:27;21.90;34.20
7234;DHT22;3658;47.992;10.158;2024-01-30T08:18:54;21.90;34.20
7234;DHT22;3658;47.992;10.158;2024-01-30T08:21:23;21.90;34.30
7234;DHT22;3658;47.992;10.158;2024-01-30T08:23:51;21.90;34.40
7234;DHT22;3658;47.992;10.158;2024-01-30T08:26:17;21.90;34.30
7234;DHT22;3658;47.992;10.158;2024-01-30T08:28:44;21.90;34.60
7234;DHT22;3658;47.992;10.158;2024-01-30T08:31:11;21.90;34.60
7234;DHT22;3658;47.992;10.158;2024-01-30T08:33:38;21.90;34.40
7234;DHT22;3658;47.992;10.158;2024-01-30T08:36:05;21.80;34.40
7234;DHT22;3658;47.992;10.158;2024-01-30T08:38:33;21.70;35.10
7234;DHT22;3658;47.992;10.158;2024-01-30T08:41:01;21.60;34.40
7234;DHT22;3658;47.992;10.158;2024-01-30T08:43:28;21.50;34.40
7234;DHT22;3658;47.992;10.158;2024-01-30T08:45:55;21.50;34.40
7234;DHT22;3658;47.992;10.158;2024-01-30T08:48:22;21.60;34.80
7234;DHT22;3658;47.992;10.158;2024-01-30T08:50:50;21.70;35.10
7234;DHT22;3658;47.992;10.158;2024-01-30T08:53:17;21.80;35.10
7234;DHT22;3658;47.992;10.158;2024-01-30T08:55:44;21.80;35.20
7234;DHT22;3658;47.992;10.158;2024-01-30T08:58:12;21.90;35.40
7234;DHT22;3658;47.992;10.158;2024-01-30T09:00:39;21.90;35.60
7234;DHT22;3658;47.992;10.158;2024-01-30T09:03:06;21.90;35.60
7234;DHT22;3658;47.992;10.158;2024-01-30T09:05:32;21.80;35.40
7234;DHT22;3658;47.992;10.158;2024-01-30T09:07:59;21.80;35.50
7234;DHT22;3658;47.992;10.158;2024-01-30T09:10:26;21.80;35.60
7234;DHT22;3658;47.992;10.158;2024-01-30T09:12:53;21.90;35.40
7234;DHT22;3658;47.992;10.158;2024-01-30T09:15:21;21.80;35.60
7234;DHT22;3658;47.992;10.158;2024-01-30T09:17:48;21.80;35.60
7234;DHT22;3658;47.992;10.158;2024-01-30T09:20:16;21.80;36.10
7234;DHT22;3658;47.992;10.158;2024-01-30T09:22:42;21.80;35.90
7234;DHT22;3658;47.992;10.158;2024-01-30T09:25:09;21.80;36.00
7234;DHT22;3658;47.992;10.158;2024-01-30T09:27:36;21.80;35.90
7234;DHT22;3658;47.992;10.158;2024-01-30T09:30:04;21.80;35.40
7234;DHT22;3658;47.992;10.158;2024-01-30T09:32:32;21.70;35.20
7234;DHT22;3658;47.992;10.158;2024-01-30T09:34:59;21.70;35.20
7234;DHT22;3658;47.992;10.158;2024-01-30T09:37:26;21.70;35.20
7234;DHT22;3658;47.992;10.158;2024-01-30T09:39:53;21.70;35.10
7234;DHT22;3658;47.992;10.158;2024-01-30T09:42:26;21.70;35.10
7234;DHT22;3658;47.992;10.158;2024-01-30T09:44:54;21.70;35.40
7234;DHT22;3658;47.992;10.158;2024-01-30T09:47:21;21.70;35.60
7234;DHT22;3658;47.992;10.158;2024-01-30T09:49:50;21.70;35.30
7234;DHT22;3658;47.992;10.158;2024-01-30T09:52:18;21.80;35.10
7234;DHT22;3658;47.992;10.158;2024-01-30T09:54:45;21.80;35.10
7234;DHT22;3658;47.992;10.158;2024-01-30T09:57:12;21.80;35.10
7234;DHT22;3658;47.992;10.158;2024-01-30T09:59:39;21.80;35.00
7234;DHT22;3658;47.992;10.158;2024-01-30T10:02:06;21.90;35.10
7234;DHT22;3658;47.992;10.158;2024-01-30T10:04:33;21.80;35.00
7234;DHT22;3658;47.992;10.158;2024-01-30T10:07:02;21.80;35.00
7234;DHT22;3658;47.992;10.158;2024-01-30T10:09:32;21.80;35.10
7234;DHT22;3658;47.992;10.158;2024-01-30T10:11:59;21.90;34.90
7234;DHT22;3658;47.992;10.158;2024-01-30T10:14:26;21.70;34.40
7234;DHT22;3658;47.992;10.158;2024-01-30T10:16:53;21.60;34.60
7234;DHT22;3658;47.992;10.158;2024-01-30T10:19:20;21.50;34.70
7234;DHT22;3658;47.992;10.158;2024-01-30T10:21:47;21.50;34.70
7234;DHT22;3658;47.992;10.158;2024-01-30T10:24:15;21.60;35.10
7234;DHT22;3658;47.992;10.158;2024-01-30T10:26:43;21.70;35.20
7234;DHT22;3658;47.992;10.158;2024-01-30T10:29:10;21.70;35.20
7234;DHT22;3658;47.992;10.158;2024-01-30T10:31:37;21.70;35.00
7234;DHT22;3658;47.992;10.158;2024-01-30T10:34:04;21.70;34.90
7234;DHT22;3658;47.992;10.158;2024-01-30T10:36:40;21.70;35.00
7234;DHT22;3658;47.992;10.158;2024-01-30T10:39:08;21.70;34.90
7234;DHT22;3658;47.992;10.158;2024-01-30T10:41:43;21.70;35.00
7234;DHT22;3658;47.992;10.158;2024-01-30T10:44:11;21.60;34.90
7234;DHT22;3658;47.992;10.158;2024-01-30T10:46:38;21.70;34.90
7234;DHT22;3658;47.992;10.158;2024-01-30T10:49:05;21.70;35.00
7234;DHT22;3658;47.992;10.158;2024-01-30T10:51:33;21.70;34.90
7234;DHT22;3658;47.992;10.158;2024-01-30T10:54:01;21.70;35.00
7234;DHT22;3658;47.992;10.158;2024-01-30T10:56:29;21.70;34.90
7234;DHT22;3658;47.992;10.158;2024-01-30T10:58:58;21.70;35.00
7234;DHT22;3658;47.992;10.158;2024-01-30T11:01:26;21.60;34.80
7234;DHT22;3658;47.992;10.158;2024-01-30T11:03:54;21.70;34.90
7234;DHT22;3658;47.992;10.158;2024-01-30T11:06:22;21.70;34.90
7234;DHT22;3658;47.992;10.158;2024-01-30T11:09:00;21.70;34.80
7234;DHT22;3658;47.992;10.158;2024-01-30T11:11:29;21.70;34.90
7234;DHT22;3658;47.992;10.158;2024-01-30T11:14:02;21.70;34.80
7234;DHT22;3658;47.992;10.158;2024-01-30T11:16:31;21.80;34.90
7234;DHT22;3658;47.992;10.158;2024-01-30T11:19:00;21.70;34.80
7234;DHT22;3658;47.992;10.158;2024-01-30T11:21:28;21.70;34.80
7234;DHT22;3658;47.992;10.158;2024-01-30T11:23:55;21.70;34.90
7234;DHT22;3658;47.992;10.158;2024-01-30T11:26:27;21.60;34.80
7234;DHT22;3658;47.992;10.158;2024-01-30T11:28:55;21.60;34.90
7234;DHT22;3658;47.992;10.158;2024-01-30T11:31:23;21.50;34.90
7234;DHT22;3658;47.992;10.158;2024-01-30T11:33:52;21.40;35.00
7234;DHT22;3658;47.992;10.158;2024-01-30T11:36:25;21.40;35.20
7234;DHT22;3658;47.992;10.158;2024-01-30T11:38:52;21.40;34.90
7234;DHT22;3658;47.992;10.158;2024-01-30T11:41:20;21.30;34.90
7234;DHT22;3658;47.992;10.158;2024-01-30T11:43:52;21.30;34.80
7234;DHT22;3658;47.992;10.158;2024-01-30T11:46:19;21.30;34.70
7234;DHT22;3658;47.992;10.158;2024-01-30T11:48:47;21.30;34.80
7234;DHT22;3658;47.992;10.158;2024-01-30T11:51:14;21.30;35.30
7234;DHT22;3658;47.992;10.158;2024-01-30T11:53:41;21.20;35.80
7234;DHT22;3658;47.992;10.158;2024-01-30T11:56:08;21.30;35.90
7234;DHT22;3658;47.992;10.158;2024-01-30T11:58:35;21.30;35.90
7234;DHT22;3658;47.992;10.158;2024-01-30T12:01:01;21.30;35.90
7234;DHT22;3658;47.992;10.158;2024-01-30T12:03:28;21.30;35.90
7234;DHT22;3658;47.992;10.158;2024-01-30T12:05:57;21.30;35.80
7234;DHT22;3658;47.992;10.158;2024-01-30T12:08:24;21.30;35.70
7234;DHT22;3658;47.992;10.158;2024-01-30T12:10:56;21.30;36.10
7234;DHT22;3658;47.992;10.158;2024-01-30T12:13:23;21.50;36.70
7234;DHT22;3658;47.992;10.158;2024-01-30T12:15:50;21.60;36.80
7234;DHT22;3658;47.992;10.158;2024-01-30T12:18:19;21.60;37.10
7234;DHT22;3658;47.992;10.158;2024-01-30T12:20:58;21.70;37.10
7234;DHT22;3658;47.992;10.158;2024-01-30T12:23:25;21.70;37.40
7234;DHT22;3658;47.992;10.158;2024-01-30T12:25:52;21.70;37.50
7234;DHT22;3658;47.992;10.158;2024-01-30T12:28:19;21.70;37.60
7234;DHT22;3658;47.992;10.158;2024-01-30T12:30:46;21.70;37.70
7234;DHT22;3658;47.992;10.158;2024-01-30T12:33:16;21.70;38.10
7234;DHT22;3658;47.992;10.158;2024-01-30T12:35:45;21.80;38.20
7234;DHT22;3658;47.992;10.158;2024-01-30T12:38:14;21.90;38.20
7234;DHT22;3658;47.992;10.158;2024-01-30T12:40:41;21.80;37.90
7234;DHT22;3658;47.992;10.158;2024-01-30T12:43:08;21.80;38.00
7234;DHT22;3658;47.992;10.158;2024-01-30T12:45:36;21.70;38.10
7234;DHT22;3658;47.992;10.158;2024-01-30T12:48:03;21.70;38.10
7234;DHT22;3658;47.992;10.158;2024-01-30T12:50:30;21.70;38.20
7234;DHT22;3658;47.992;10.158;2024-01-30T12:52:57;21.70;38.40
7234;DHT22;3658;47.992;10.158;2024-01-30T12:55:25;21.80;38.50
7234;DHT22;3658;47.992;10.158;2024-01-30T12:57:54;21.80;38.10
7234;DHT22;3658;47.992;10.158;2024-01-30T13:00:21;21.80;38.40
7234;DHT22;3658;47.992;10.158;2024-01-30T13:02:48;21.70;38.40
7234;DHT22;3658;47.992;10.158;2024-01-30T13:05:15;21.70;38.50
7234;DHT22;3658;47.992;10.158;2024-01-30T13:07:41;21.70;38.50
7234;DHT22;3658;47.992;10.158;2024-01-30T13:10:08;21.70;38.50
7234;DHT22;3658;47.992;10.158;2024-01-30T13:12:36;21.80;38.60
7234;DHT22;3658;47.992;10.158;2024-01-30T13:15:04;21.70;38.60
7234;DHT22;3658;47.992;10.158;2024-01-30T13:17:31;21.70;38.70
7234;DHT22;3658;47.992;10.158;2024-01-30T13:19:58;21.80;38.70
7234;DHT22;3658;47.992;10.158;2024-01-30T13:22:25;21.80;38.60
7234;DHT22;3658;47.992;10.158;2024-01-30T13:24:52;21.80;38.40
7234;DHT22;3658;47.992;10.158;2024-01-30T13:27:20;21.80;38.30
7234;DHT22;3658;47.992;10.158;2024-01-30T13:29:48;21.80;38.40
7234;DHT22;3658;47.992;10.158;2024-01-30T13:32:15;21.80;38.30
7234;DHT22;3658;47.992;10.158;2024-01-30T13:34:42;21.90;38.10
7234;DHT22;3658;47.992;10.158;2024-01-30T13:37:09;21.80;38.10
7234;DHT22;3658;47.992;10.158;2024-01-30T13:39:36;21.70;38.00
7234;DHT22;3658;47.992;10.158;2024-01-30T13:42:03;21.60;37.90
7234;DHT22;3658;47.992;10.158;2024-01-30T13:44:30;21.60;36.80
7234;DHT22;3658;47.992;10.158;2024-01-30T13:48:44;21.30;33.60
7234;DHT22;3658;47.992;10.158;2024-01-30T13:51:11;21.20;33.50
7234;DHT22;3658;47.992;10.158;2024-01-30T13:53:38;21.20;33.10
7234;DHT22;3658;47.992;10.158;2024-01-30T13:56:05;21.20;32.60
7234;DHT22;3658;47.992;10.158;2024-01-30T13:58:32;21.20;32.50
7234;DHT22;3658;47.992;10.158;2024-01-30T14:01:01;21.20;32.50
7234;DHT22;3658;47.992;10.158;2024-01-30T14:03:28;21.10;32.80
7234;DHT22;3658;47.992;10.158;2024-01-30T14:05:56;21.10;32.30
7234;DHT22;3658;47.992;10.158;2024-01-30T14:08:23;21.10;31.60
7234;DHT22;3658;47.992;10.158;2024-01-30T14:10:53;21.00;31.60
7234;DHT22;3658;47.992;10.158;2024-01-30T14:13:20;21.00;31.70
7234;DHT22;3658;47.992;10.158;2024-01-30T14:15:48;20.90;31.70
7234;DHT22;3658;47.992;10.158;2024-01-30T14:18:15;20.80;31.40
7234;DHT22;3658;47.992;10.158;2024-01-30T14:20:41;20.90;31.70
7234;DHT22;3658;47.992;10.158;2024-01-30T14:23:10;21.00;32.10
7234;DHT22;3658;47.992;10.158;2024-01-30T14:25:37;21.10;32.30
7234;DHT22;3658;47.992;10.158;2024-01-30T14:28:04;21.20;32.60
7234;DHT22;3658;47.992;10.158;2024-01-30T14:30:31;21.30;32.80
7234;DHT22;3658;47.992;10.158;2024-01-30T14:32:57;21.40;33.00
7234;DHT22;3658;47.992;10.158;2024-01-30T14:35:24;21.40;33.10
7234;DHT22;3658;47.992;10.158;2024-01-30T14:37:51;21.50;33.30
7234;DHT22;3658;47.992;10.158;2024-01-30T14:40:20;21.50;33.40
7234;DHT22;3658;47.992;10.158;2024-01-30T14:42:47;21.50;33.60
7234;DHT22;3658;47.992;10.158;2024-01-30T14:45:14;21.50;33.90
7234;DHT22;3658;47.992;10.158;2024-01-30T14:47:41;21.50;33.80
7234;DHT22;3658;47.992;10.158;2024-01-30T14:50:08;21.50;34.30
7234;DHT22;3658;47.992;10.158;2024-01-30T14:52:35;21.60;34.30
7234;DHT22;3658;47.992;10.158;2024-01-30T14:55:03;21.70;34.60
7234;DHT22;3658;47.992;10.158;2024-01-30T14:57:32;21.60;34.40
7234;DHT22;3658;47.992;10.158;2024-01-30T15:00:00;21.70;34.40
7234;DHT22;3658;47.992;10.158;2024-01-30T15:02:27;21.70;34.50
7234;DHT22;3658;47.992;10.158;2024-01-30T15:04:54;21.70;34.40
7234;DHT22;3658;47.992;10.158;2024-01-30T15:07:20;21.70;34.40
7234;DHT22;3658;47.992;10.158;2024-01-30T15:09:47;21.70;34.40
7234;DHT22;3658;47.992;10.158;2024-01-30T21:45:09;21.80;36.70
7234;DHT22;3658;47.992;10.158;2024-01-30T21:47:36;21.50;37.00
7234;DHT22;3658;47.992;10.158;2024-01-30T21:50:04;21.40;36.90
7234;DHT22;3658;47.992;10.158;2024-01-30T21:52:31;21.40;37.00
7234;DHT22;3658;47.992;10.158;2024-01-30T21:54:58;21.40;36.90
7234;DHT22;3658;47.992;10.158;2024-01-30T21:57:25;21.40;36.90
7234;DHT22;3658;47.992;10.158;2024-01-30T21:59:51;21.40;36.80
7234;DHT22;3658;47.992;10.158;2024-01-30T22:02:22;21.40;36.80
7234;DHT22;3658;47.992;10.158;2024-01-30T22:04:49;21.40;36.80
7234;DHT22;3658;47.992;10.158;2024-01-30T22:07:16;21.30;36.70
7234;DHT22;3658;47.992;10.158;2024-01-30T22:09:43;21.40;36.80
7234;DHT22;3658;47.992;10.158;2024-01-30T22:12:10;21.30;36.70
7234;DHT22;3658;47.992;10.158;2024-01-30T22:14:36;21.30;36.70
7234;DHT22;3658;47.992;10.158;2024-01-30T22:17:03;21.30;36.60
7234;DHT22;3658;47.992;10.158;2024-01-30T22:19:31;21.30;36.50